createdAt,value
2022-08-23T00:01:40.954Z,3.22
2022-08-23T00:04:10.144Z,3.42
2022-08-23T00:06:39.183Z,2.80
2022-08-23T00:09:07.536Z,2.90
2022-08-23T00:11:49.000Z,2.58
2022-08-23T00:14:23.170Z,2.67
2022-08-23T00:16:51.672Z,2.78
2022-08-23T00:19:20.670Z,2.65
2022-08-23T00:21:48.821Z,3.13
2022-08-23T00:24:17.150Z,2.80
2022-08-23T00:26:50.441Z,3.42
2022-08-23T00:29:18.471Z,3.25
2022-08-23T00:31:46.343Z,3.63
2022-08-23T00:34:13.862Z,3.53
2022-08-23T00:36:45.214Z,3.38
2022-08-23T00:39:13.125Z,4.85
2022-08-23T00:41:40.997Z,3.25
2022-08-23T00:44:33.764Z,3.40
2022-08-23T00:47:34.912Z,3.30
2022-08-23T00:50:23.552Z,3.40
2022-08-23T00:53:02.019Z,3.25
2022-08-23T00:55:29.720Z,3.20
2022-08-23T00:57:57.586Z,3.45
2022-08-23T01:00:25.612Z,3.13
2022-08-23T01:02:53.161Z,3.65
2022-08-23T01:05:21.215Z,3.50
2022-08-23T01:07:48.839Z,3.33
2022-08-23T01:10:28.575Z,3.60
2022-08-23T01:13:02.080Z,4.25
2022-08-23T01:15:37.190Z,3.92
2022-08-23T01:20:36.358Z,3.53
2022-08-23T01:23:08.003Z,4.10
2022-08-23T01:25:36.520Z,3.50
2022-08-23T01:28:04.621Z,3.60
2022-08-23T01:30:35.587Z,4.07
2022-08-23T01:33:07.545Z,3.50
2022-08-23T01:35:37.806Z,3.88
2022-08-23T01:38:05.776Z,3.72
2022-08-23T01:40:34.203Z,3.70
2022-08-23T01:43:02.481Z,3.60
2022-08-23T01:45:30.890Z,4.10
2022-08-23T01:47:59.246Z,3.83
2022-08-23T01:50:27.492Z,4.13
2022-08-23T01:52:55.248Z,4.25
2022-08-23T01:55:23.084Z,4.60
2022-08-23T01:57:51.792Z,4.05
2022-08-23T02:00:20.577Z,4.00
2022-08-23T02:02:48.506Z,4.13
2022-08-23T02:05:18.858Z,3.92
2022-08-23T02:07:47.267Z,4.28
2022-08-23T02:10:15.244Z,5.32
2022-08-23T02:12:43.455Z,4.00
2022-08-23T02:15:11.301Z,4.88
2022-08-23T02:17:39.245Z,5.38
2022-08-23T02:20:08.588Z,4.70
2022-08-23T02:22:36.454Z,3.67
2022-08-23T02:25:08.540Z,4.10
2022-08-23T02:27:36.522Z,4.65
2022-08-23T02:30:05.785Z,4.45
2022-08-23T02:32:33.352Z,3.80
2022-08-23T02:35:05.788Z,4.80
2022-08-23T02:37:34.395Z,4.70
2022-08-23T02:40:02.071Z,5.20
2022-08-23T02:42:29.902Z,4.60
2022-08-23T02:44:57.854Z,4.70
2022-08-23T02:47:25.568Z,4.75
2022-08-23T02:49:53.970Z,5.20
2022-08-23T02:52:21.783Z,4.93
2022-08-23T02:54:49.609Z,5.35
2022-08-23T02:57:21.317Z,4.60
2022-08-23T02:59:48.822Z,4.97
2022-08-23T03:02:17.033Z,5.00
2022-08-23T03:04:46.287Z,5.40
2022-08-23T03:07:15.717Z,4.38
2022-08-23T03:09:45.482Z,4.90
2022-08-23T03:12:15.542Z,5.05
2022-08-23T03:14:44.057Z,4.97
2022-08-23T03:17:14.500Z,4.78
2022-08-23T03:19:44.303Z,5.40
2022-08-23T03:22:15.543Z,4.88
2022-08-23T03:24:46.933Z,4.60
2022-08-23T03:27:18.516Z,4.97
2022-08-23T03:29:48.640Z,5.20
2022-08-23T03:32:17.287Z,5.03
2022-08-23T03:34:45.501Z,4.65
2022-08-23T03:37:14.228Z,4.80
2022-08-23T03:39:42.802Z,4.70
2022-08-23T03:42:11.747Z,4.47
2022-08-23T03:44:39.612Z,4.25
2022-08-23T03:47:08.299Z,4.63
2022-08-23T03:49:36.945Z,4.25
2022-08-23T03:52:07.095Z,4.85
2022-08-23T03:54:38.872Z,4.88
2022-08-23T03:57:09.996Z,5.10
2022-08-23T03:59:44.064Z,4.68
2022-08-23T04:02:12.159Z,5.30
2022-08-23T04:04:40.283Z,4.97
2022-08-23T04:07:07.934Z,4.35
2022-08-23T04:09:35.955Z,5.78
2022-08-23T04:12:04.234Z,4.53
2022-08-23T04:14:41.082Z,5.18
2022-08-23T04:17:10.852Z,4.93
2022-08-23T04:19:41.438Z,4.97
2022-08-23T04:22:13.125Z,5.00
2022-08-23T04:24:41.672Z,5.50
2022-08-23T04:27:11.019Z,5.28
2022-08-23T04:29:40.685Z,5.43
2022-08-23T04:32:12.684Z,5.15
2022-08-23T04:34:45.316Z,5.15
2022-08-23T04:37:14.726Z,4.72
2022-08-23T04:40:03.388Z,5.70
2022-08-23T04:42:31.381Z,5.43
2022-08-23T04:45:03.254Z,5.53
2022-08-23T04:47:31.604Z,5.05
2022-08-23T04:50:00.156Z,4.97
2022-08-23T04:52:29.194Z,4.63
2022-08-23T04:55:00.873Z,4.63
2022-08-23T04:57:33.327Z,4.68
2022-08-23T05:00:02.486Z,5.10
2022-08-23T05:02:30.546Z,4.75
2022-08-23T05:04:58.702Z,5.25
2022-08-23T05:07:41.592Z,4.95
2022-08-23T05:10:13.511Z,4.68
2022-08-23T05:12:43.541Z,4.78
2022-08-23T05:15:11.621Z,4.13
2022-08-23T05:17:39.847Z,4.50
2022-08-23T05:20:08.822Z,4.40
2022-08-23T05:22:37.099Z,4.07
2022-08-23T05:25:05.496Z,4.47
2022-08-23T05:27:33.681Z,4.40
2022-08-23T05:30:01.204Z,4.35
2022-08-23T05:32:32.882Z,3.90
2022-08-23T05:35:01.009Z,4.32
2022-08-23T05:37:29.411Z,3.83
2022-08-23T05:39:58.300Z,4.45
2022-08-23T05:42:25.947Z,3.60
2022-08-23T05:44:53.787Z,3.80
2022-08-23T05:47:24.879Z,3.80
2022-08-23T05:49:52.986Z,3.92
2022-08-23T05:52:20.976Z,3.33
2022-08-23T05:54:48.276Z,4.20
2022-08-23T05:57:15.704Z,3.22
2022-08-23T05:59:43.287Z,3.47
2022-08-23T06:02:10.975Z,3.20
2022-08-23T06:04:38.327Z,2.88
2022-08-23T06:07:06.780Z,3.92
2022-08-23T06:09:34.306Z,3.38
2022-08-23T06:12:01.764Z,3.35
2022-08-23T06:14:29.341Z,3.17
2022-08-23T06:16:56.724Z,4.03
2022-08-23T06:19:24.405Z,3.33
2022-08-23T06:21:52.379Z,2.60
2022-08-23T06:24:20.301Z,3.00
2022-08-23T06:26:48.122Z,2.90
2022-08-23T06:29:17.742Z,3.20
2022-08-23T06:31:49.407Z,2.88
2022-08-23T06:34:19.349Z,3.22
2022-08-23T06:36:47.941Z,3.08
2022-08-23T06:39:15.988Z,3.38
2022-08-23T06:41:43.396Z,3.00
2022-08-23T06:44:11.251Z,3.00
2022-08-23T06:46:38.783Z,2.35
2022-08-23T06:49:06.953Z,2.90
2022-08-23T06:51:36.477Z,2.85
2022-08-23T06:54:07.201Z,2.97
2022-08-23T06:56:35.592Z,2.67
2022-08-23T06:59:06.185Z,2.25
2022-08-23T07:01:52.481Z,2.17
2022-08-23T07:04:24.562Z,2.40
2022-08-23T07:06:52.181Z,2.42
2022-08-23T07:09:19.746Z,2.50
2022-08-23T07:11:47.602Z,2.25
2022-08-23T07:14:16.920Z,2.40
2022-08-23T07:16:53.091Z,2.05
2022-08-23T07:19:22.251Z,2.20
2022-08-23T07:21:56.631Z,2.45
2022-08-23T07:24:24.170Z,1.80
2022-08-23T07:26:55.162Z,2.15
2022-08-23T07:29:23.612Z,2.20
2022-08-23T07:31:52.701Z,2.10
2022-08-23T07:34:21.099Z,14.50
2022-08-23T07:36:49.359Z,2.78
2022-08-23T07:39:17.694Z,2.25
2022-08-23T07:41:45.174Z,2.17
2022-08-23T07:44:13.093Z,2.30
2022-08-23T07:46:46.212Z,2.15
2022-08-23T07:49:14.415Z,2.85
2022-08-23T07:51:42.814Z,1.95
2022-08-23T07:54:11.018Z,2.45
2022-08-23T07:56:38.374Z,2.00
2022-08-23T07:59:06.706Z,2.20
2022-08-23T08:01:34.089Z,2.10
2022-08-23T08:04:03.488Z,2.25
2022-08-23T08:06:33.065Z,2.20
2022-08-23T08:09:00.852Z,2.38
2022-08-23T08:11:34.804Z,2.05
2022-08-23T08:14:07.924Z,1.88
2022-08-23T08:16:45.964Z,1.65
2022-08-23T08:19:15.866Z,1.45
2022-08-23T08:21:47.697Z,1.30
2022-08-23T08:24:17.251Z,1.60
2022-08-23T08:26:45.257Z,1.42
2022-08-23T08:29:13.627Z,1.67
2022-08-23T08:31:42.576Z,1.35
2022-08-23T08:34:10.503Z,1.20
2022-08-23T08:36:41.070Z,1.33
2022-08-23T08:39:18.479Z,1.50
2022-08-23T08:42:03.969Z,1.35
2022-08-23T08:44:34.959Z,1.40
2022-08-23T08:47:08.071Z,1.40
2022-08-23T08:49:56.495Z,1.50
2022-08-23T08:52:24.944Z,1.33
2022-08-23T08:54:56.753Z,1.17
2022-08-23T08:57:27.611Z,1.38
2022-08-23T09:00:04.445Z,1.00
2022-08-23T09:02:35.907Z,0.85
2022-08-23T09:05:04.733Z,1.20
2022-08-23T09:07:32.095Z,1.30
2022-08-23T09:10:12.262Z,0.85
2022-08-23T09:12:56.218Z,0.90
2022-08-23T09:15:27.061Z,1.00
2022-08-23T09:17:59.985Z,1.02
2022-08-23T09:20:32.819Z,1.20
2022-08-23T09:23:07.190Z,1.10
2022-08-23T09:25:35.044Z,1.00
2022-08-23T09:28:02.701Z,0.90
2022-08-23T09:30:46.055Z,1.10
2022-08-23T09:33:21.727Z,1.17
2022-08-23T09:36:04.831Z,1.35
2022-08-23T09:38:33.295Z,1.30
2022-08-23T09:41:01.191Z,1.00
2022-08-23T09:43:31.337Z,1.50
2022-08-23T09:46:00.943Z,1.35
2022-08-23T09:48:42.085Z,1.27
2022-08-23T09:51:21.010Z,1.45
2022-08-23T09:54:03.877Z,1.33
2022-08-23T09:56:32.776Z,1.30
2022-08-23T09:59:00.593Z,1.30
2022-08-23T10:01:29.613Z,1.23
2022-08-23T10:04:11.713Z,1.42
2022-08-23T10:06:39.835Z,1.23
2022-08-23T10:09:08.471Z,1.15
2022-08-23T10:11:46.451Z,1.30
2022-08-23T10:14:16.133Z,1.33
2022-08-23T10:17:03.310Z,1.42
2022-08-23T10:25:59.600Z,1.38
2022-08-23T10:34:55.508Z,1.33
2022-08-23T10:37:43.494Z,1.35
2022-08-23T10:40:13.296Z,1.38
2022-08-23T10:42:56.210Z,1.25
2022-08-23T10:45:36.045Z,1.10
2022-08-23T10:48:29.826Z,1.30
2022-08-23T10:50:59.140Z,1.20
2022-08-23T10:53:56.851Z,1.10
2022-08-23T10:56:24.359Z,1.35
2022-08-23T10:59:10.499Z,1.20
2022-08-23T11:01:38.269Z,1.23
2022-08-23T11:04:20.368Z,1.02
2022-08-23T11:06:52.081Z,1.15
2022-08-23T11:09:22.403Z,1.20
2022-08-23T11:12:14.769Z,1.43
2022-08-23T11:14:44.272Z,1.10
2022-08-23T11:17:13.299Z,1.20
2022-08-23T11:20:05.073Z,1.13
2022-08-23T11:22:33.762Z,1.15
2022-08-23T11:25:03.563Z,1.35
2022-08-23T11:27:43.114Z,1.50
2022-08-23T11:30:29.140Z,1.00
2022-08-23T11:32:56.509Z,1.20
2022-08-23T11:35:33.355Z,1.23
2022-08-23T11:38:04.894Z,1.17
2022-08-23T11:40:42.042Z,1.60
2022-08-23T11:43:12.615Z,1.15
2022-08-23T11:45:47.812Z,1.10
2022-08-23T11:48:24.274Z,1.60
2022-08-23T11:50:57.571Z,1.50
2022-08-23T11:53:25.374Z,1.23
2022-08-23T11:56:05.200Z,1.20
2022-08-23T11:58:35.213Z,1.40
2022-08-23T12:01:10.893Z,1.00
2022-08-23T12:03:57.101Z,1.20
2022-08-23T12:06:27.279Z,1.00
2022-08-23T12:09:02.080Z,1.42
2022-08-23T12:11:48.008Z,1.35
2022-08-23T12:14:34.228Z,1.13
2022-08-23T12:17:06.430Z,1.17
2022-08-23T12:19:56.608Z,1.02
2022-08-23T12:22:27.217Z,1.30
2022-08-23T12:24:59.745Z,1.20
2022-08-23T12:27:27.295Z,1.45
2022-08-23T12:29:54.593Z,1.33
2022-08-23T12:32:45.098Z,1.20
2022-08-23T12:35:21.199Z,1.63
2022-08-23T12:38:01.618Z,1.30
2022-08-23T12:40:32.050Z,1.08
2022-08-23T12:43:19.807Z,1.10
2022-08-23T12:46:01.029Z,1.35
2022-08-23T12:48:33.393Z,1.33
2022-08-23T12:51:07.663Z,1.30
2022-08-23T12:53:39.353Z,1.08
2022-08-23T12:56:14.078Z,1.17
2022-08-23T12:58:46.445Z,1.17
2022-08-23T13:01:30.143Z,1.10
2022-08-23T13:04:02.106Z,1.10
2022-08-23T13:06:32.279Z,1.08
2022-08-23T13:09:02.984Z,1.20
2022-08-23T13:11:32.172Z,1.20
2022-08-23T13:14:01.325Z,1.38
2022-08-23T13:16:29.012Z,1.15
2022-08-23T13:19:10.873Z,1.10
2022-08-23T13:21:40.047Z,1.00
2022-08-23T13:24:31.446Z,1.27
2022-08-23T13:27:17.469Z,1.40
2022-08-23T13:29:51.334Z,1.10
2022-08-23T13:32:27.028Z,1.40
2022-08-23T13:35:17.347Z,1.40
2022-08-23T13:37:47.529Z,1.15
2022-08-23T13:40:19.003Z,1.15
2022-08-23T13:42:50.963Z,1.20
2022-08-23T13:45:21.874Z,0.93
2022-08-23T13:47:55.821Z,1.38
2022-08-23T13:50:34.519Z,1.23
2022-08-23T13:53:14.496Z,1.15
2022-08-23T13:55:48.270Z,1.30
2022-08-23T13:58:24.934Z,1.55
2022-08-23T14:00:55.714Z,1.23
2022-08-23T14:03:23.728Z,1.30
2022-08-23T14:05:51.251Z,1.20
2022-08-23T14:08:18.542Z,1.30
2022-08-23T14:10:46.864Z,1.20
2022-08-23T14:13:16.323Z,1.30
2022-08-23T14:16:32.910Z,1.40
2022-08-23T14:19:14.908Z,1.08
2022-08-23T14:21:31.011Z,1.25
2022-08-23T14:26:25.604Z,1.30
2022-08-23T14:28:54.278Z,1.40
2022-08-23T14:31:21.909Z,1.20
2022-08-23T14:33:49.413Z,1.30
2022-08-23T14:36:18.478Z,1.40
2022-08-23T14:38:50.076Z,1.60
2022-08-23T14:41:22.768Z,1.50
2022-08-23T14:43:50.645Z,1.58
2022-08-23T14:46:18.757Z,3.10
2022-08-23T14:48:46.120Z,1.30
2022-08-23T14:51:32.335Z,1.30
2022-08-23T14:54:00.809Z,1.50
2022-08-23T14:56:28.426Z,1.23
2022-08-23T14:58:55.702Z,1.55
2022-08-23T15:01:23.306Z,1.40
2022-08-23T15:03:50.749Z,1.40
2022-08-23T15:06:19.539Z,1.42
2022-08-23T15:08:47.647Z,1.58
2022-08-23T15:14:03.616Z,1.40
2022-08-23T15:16:30.982Z,1.48
2022-08-23T15:18:58.669Z,1.42
2022-08-23T15:21:26.068Z,1.60
2022-08-23T15:23:53.400Z,1.40
2022-08-23T15:26:22.356Z,1.20
2022-08-23T15:28:49.998Z,1.63
2022-08-23T15:31:17.768Z,1.70
2022-08-23T15:33:45.974Z,1.88
2022-08-23T15:36:15.251Z,1.38
2022-08-23T15:38:44.003Z,1.30
2022-08-23T15:41:11.428Z,1.33
2022-08-23T15:43:42.151Z,1.63
2022-08-23T15:46:11.380Z,1.30
2022-08-23T15:48:43.739Z,1.23
2022-08-23T15:51:11.316Z,2.10
2022-08-23T15:53:40.353Z,1.17
2022-08-23T15:56:10.445Z,1.33
2022-08-23T15:58:37.984Z,1.02
2022-08-23T16:01:07.118Z,1.10
2022-08-23T16:03:34.702Z,1.48
2022-08-23T16:06:02.654Z,1.52
2022-08-23T16:08:34.396Z,1.38
2022-08-23T16:11:09.147Z,1.13
2022-08-23T16:13:40.830Z,1.40
2022-08-23T16:16:12.903Z,1.17
2022-08-23T16:18:41.402Z,1.60
2022-08-23T16:21:08.757Z,1.50
2022-08-23T16:23:36.102Z,1.30
2022-08-23T16:26:03.701Z,1.40
2022-08-23T16:28:31.308Z,1.40
2022-08-23T16:30:58.650Z,1.30
2022-08-23T16:33:25.950Z,1.05
2022-08-23T16:35:53.339Z,1.45
2022-08-23T16:38:20.627Z,1.40
2022-08-23T16:40:48.194Z,1.10
2022-08-23T16:43:15.611Z,1.40
2022-08-23T16:45:43.135Z,1.60
2022-08-23T16:48:14.585Z,1.23
2022-08-23T16:50:42.373Z,1.45
2022-08-23T16:53:10.011Z,1.17
2022-08-23T16:55:38.407Z,1.30
2022-08-23T16:58:05.971Z,1.25
2022-08-23T17:00:34.404Z,1.27
2022-08-23T17:03:02.227Z,1.50
2022-08-23T17:05:30.045Z,1.33
2022-08-23T17:07:57.357Z,1.20
2022-08-23T17:10:25.054Z,1.35
2022-08-23T17:12:53.665Z,1.50
2022-08-23T17:15:23.729Z,1.50
2022-08-23T17:17:51.534Z,2.67
2022-08-23T17:20:20.017Z,1.30
2022-08-23T17:22:47.899Z,0.98
2022-08-23T17:25:16.518Z,1.25
2022-08-23T17:27:46.195Z,1.40
2022-08-23T17:30:16.034Z,1.52
2022-08-23T17:32:43.677Z,1.55
2022-08-23T17:35:14.950Z,1.42
2022-08-23T17:37:43.096Z,1.60
2022-08-23T17:40:14.461Z,1.42
2022-08-23T17:42:43.262Z,1.33
2022-08-23T17:45:11.624Z,1.83
2022-08-23T17:47:39.163Z,1.27
2022-08-23T17:50:07.490Z,1.40
2022-08-23T17:52:34.902Z,1.20
2022-08-23T17:55:02.290Z,1.52
2022-08-23T17:57:30.945Z,1.02
2022-08-23T18:00:00.675Z,1.30
2022-08-23T18:02:28.511Z,1.60
2022-08-23T18:04:55.902Z,1.50
2022-08-23T18:07:23.486Z,1.60
2022-08-23T18:09:51.754Z,1.52
2022-08-23T18:12:19.324Z,1.38
2022-08-23T18:14:46.657Z,1.40
2022-08-23T18:17:13.985Z,1.48
2022-08-23T18:19:41.426Z,1.60
2022-08-23T18:22:08.814Z,1.30
2022-08-23T18:24:36.263Z,1.20
2022-08-23T18:27:22.185Z,1.38
2022-08-23T18:29:51.414Z,1.58
2022-08-23T18:32:19.344Z,1.27
2022-08-23T18:34:46.738Z,1.45
2022-08-23T18:37:17.191Z,1.30
2022-08-23T18:39:44.942Z,1.25
2022-08-23T18:42:14.375Z,1.52
2022-08-23T18:44:42.320Z,1.50
2022-08-23T18:47:09.971Z,1.55
2022-08-23T18:49:38.847Z,1.67
2022-08-23T18:52:06.509Z,1.83
2022-08-23T18:54:34.314Z,1.40
2022-08-23T18:57:01.658Z,1.67
2022-08-23T18:59:28.997Z,1.52
2022-08-23T19:01:56.606Z,1.40
2022-08-23T19:04:24.137Z,1.55
2022-08-23T19:06:53.463Z,1.58
2022-08-23T19:09:21.978Z,1.30
2022-08-23T19:11:49.286Z,1.40
2022-08-23T19:14:16.776Z,1.70
2022-08-23T19:16:48.122Z,2.00
2022-08-23T19:19:16.045Z,1.35
2022-08-23T19:21:43.785Z,1.23
2022-08-23T19:24:11.543Z,1.50
2022-08-23T19:26:39.338Z,1.40
2022-08-23T19:29:08.719Z,1.38
2022-08-23T19:31:41.634Z,1.60
2022-08-23T19:34:09.957Z,1.50
2022-08-23T19:37:00.660Z,1.52
2022-08-23T19:39:24.860Z,1.90
2022-08-23T19:41:52.315Z,1.42
2022-08-23T19:44:19.657Z,2.35
2022-08-23T19:46:47.170Z,1.60
2022-08-23T19:49:23.690Z,1.60
2022-08-23T19:51:51.165Z,1.70
2022-08-23T19:54:18.491Z,1.67
2022-08-23T19:56:50.448Z,1.48
2022-08-23T19:59:20.438Z,1.58
2022-08-23T20:01:49.810Z,1.92
2022-08-23T20:04:18.241Z,1.67
2022-08-23T20:06:45.583Z,1.67
2022-08-23T20:09:13.339Z,1.98
2022-08-23T20:11:40.741Z,1.67
2022-08-23T20:14:10.183Z,1.65
2022-08-23T20:16:40.951Z,1.55
2022-08-23T20:19:09.724Z,1.77
2022-08-23T20:21:37.285Z,1.95
2022-08-23T20:24:05.123Z,1.60
2022-08-23T20:26:38.766Z,1.73
2022-08-23T20:29:06.676Z,1.73
2022-08-23T20:31:46.936Z,2.10
2022-08-23T20:34:14.433Z,2.05
2022-08-23T20:36:41.759Z,1.98
2022-08-23T20:39:09.486Z,1.98
2022-08-23T20:41:37.868Z,2.10
2022-08-23T20:44:06.028Z,2.40
2022-08-23T20:46:34.098Z,1.65
2022-08-23T20:49:01.521Z,2.10
2022-08-23T20:51:29.649Z,2.00
2022-08-23T20:53:57.301Z,2.58
2022-08-23T20:56:25.232Z,1.90
2022-08-23T20:58:52.930Z,2.10
2022-08-23T21:01:20.451Z,1.88
2022-08-23T21:03:47.910Z,2.20
2022-08-23T21:06:20.000Z,2.25
2022-08-23T21:08:49.874Z,2.00
2022-08-23T21:11:21.741Z,2.35
2022-08-23T21:13:49.018Z,2.28
2022-08-23T21:16:17.371Z,2.35
2022-08-23T21:18:45.197Z,2.20
2022-08-23T21:21:12.597Z,1.88
2022-08-23T21:23:39.938Z,2.40
2022-08-23T21:26:08.180Z,2.47
2022-08-23T21:28:36.400Z,2.70
2022-08-23T21:31:13.839Z,2.65
2022-08-23T21:33:42.164Z,2.53
2022-08-23T21:36:10.305Z,2.10
2022-08-23T21:38:37.807Z,2.25
2022-08-23T21:41:07.984Z,2.00
2022-08-23T21:43:37.360Z,2.13
2022-08-23T21:46:07.486Z,2.60
2022-08-23T21:48:35.477Z,2.10
2022-08-23T21:51:02.863Z,2.63
2022-08-23T21:53:31.321Z,2.40
2022-08-23T21:55:58.812Z,2.20
2022-08-23T21:58:26.272Z,2.35
2022-08-23T22:00:53.586Z,2.50
2022-08-23T22:03:20.893Z,2.72
2022-08-23T22:05:48.865Z,2.25
2022-08-23T22:08:17.046Z,2.15
2022-08-23T22:10:56.677Z,2.70
2022-08-23T22:13:26.857Z,2.58
2022-08-23T22:15:54.895Z,2.35
2022-08-23T22:18:22.338Z,2.50
2022-08-23T22:20:49.767Z,2.42
2022-08-23T22:23:17.490Z,2.60
2022-08-23T22:25:45.159Z,2.63
2022-08-23T22:28:12.663Z,2.45
2022-08-23T22:30:42.426Z,2.50
2022-08-23T22:33:10.038Z,2.60
2022-08-23T22:35:37.586Z,2.50
2022-08-23T22:38:13.823Z,2.80
2022-08-23T22:40:47.892Z,2.55
2022-08-23T22:43:15.483Z,2.55
2022-08-23T22:45:55.262Z,3.45
2022-08-23T22:48:23.175Z,3.55
2022-08-23T22:50:50.592Z,3.50
2022-08-23T22:53:19.544Z,3.38
2022-08-23T22:55:52.636Z,3.25
2022-08-23T23:03:35.898Z,3.88
2022-08-23T23:06:05.257Z,3.17
2022-08-23T23:08:32.591Z,3.05
2022-08-23T23:11:01.707Z,3.20
2022-08-23T23:13:30.181Z,2.90
2022-08-23T23:15:57.566Z,2.85
2022-08-23T23:18:26.434Z,3.45
2022-08-23T23:20:54.259Z,3.08
2022-08-23T23:23:23.661Z,3.05
2022-08-23T23:25:51.282Z,3.20
2022-08-23T23:28:19.416Z,3.67
2022-08-23T23:30:48.079Z,3.05
2022-08-23T23:33:15.861Z,3.50
2022-08-23T23:35:43.810Z,2.80
2022-08-23T23:38:13.794Z,3.03
2022-08-23T23:40:41.595Z,3.00
2022-08-23T23:43:11.222Z,3.47
2022-08-23T23:45:41.426Z,3.30
2022-08-23T23:48:10.406Z,3.22
2022-08-23T23:50:44.971Z,2.90
2022-08-23T23:53:14.274Z,2.75
2022-08-23T23:55:41.641Z,3.60
2022-08-23T23:58:09.019Z,3.30
